Portada
METAR-TAF:

METAR-TAF

Aeroports :

Illes Cocos, Austràlia

latitud: 12-11S, longitud: 096-49E, altitud: 3 m

Observació

L'informe es va fer fa 43 minuts, a les 22:00 UTC
Vent 7 kt del Est/Sud-Est
Temperatura 26°C
Humitat 74%
Pressió 1011 hPa
Visibilitat 10 km o més
Núvols disperses a una alçada de 2700 ft

METAR: YPCC 112200Z AUTO 12007KT 9999 // SCT027 26/21 Q1011

Hora: 05:13 (22:43 UTC)

Pronòstic

L'informe es va fer fa 5 hores i 41 minuts, a les 17:02 UTC
Pronòstic vàlid del 11 a les 18 UTC al 12 a les 18 UTC
Vent 15 kt del Est/Sud-Est
Visibilitat 10 km o més
Núvols disperses a una alçada de 2500 ft

TAF: YPCC 111702Z 1118/1218 12015KT 9999 SCT025

Observacions i pronòstics meteorològics de més de 4000 aeroports (METAR i TAF).

Les estacions disponibles són els punts grocs i vermells al mapa.

Posi el ratolí al punt desitjat per veure el nom de l'estació.

Feu clic per veure les observacions i els pronòstics meteorològics.

Per canviar el mapa: feu clic els botons verds amb una creu de color negre per apropar; al botó verd amb un guió per allunyar la imatge; o en les fletxes verdes per a mapes adjacents.


METAR-TAF: